sensor_id;sensor_type;location;lat;lon;timestamp;P1;durP1;ratioP1;P2;durP2;ratioP2
68449;SDS011;55434;39.570;2.652;2022-07-23T00:00:48;10.48;;;5.88;;
68449;SDS011;55434;39.570;2.652;2022-07-23T00:03:14;9.57;;;5.70;;
68449;SDS011;55434;39.570;2.652;2022-07-23T00:05:40;10.13;;;5.45;;
68449;SDS011;55434;39.570;2.652;2022-07-23T00:08:06;10.40;;;5.90;;
68449;SDS011;55434;39.570;2.652;2022-07-23T00:10:32;15.13;;;5.85;;
68449;SDS011;55434;39.570;2.652;2022-07-23T00:12:58;11.13;;;6.28;;
68449;SDS011;55434;39.570;2.652;2022-07-23T00:15:24;11.80;;;5.90;;
68449;SDS011;55434;39.570;2.652;2022-07-23T00:17:49;12.37;;;5.97;;
68449;SDS011;55434;39.570;2.652;2022-07-23T00:20:15;10.77;;;5.75;;
68449;SDS011;55434;39.570;2.652;2022-07-23T00:22:47;10.23;;;5.90;;
68449;SDS011;55434;39.570;2.652;2022-07-23T00:25:17;13.00;;;6.22;;
68449;SDS011;55434;39.570;2.652;2022-07-23T00:27:43;11.43;;;5.80;;
68449;SDS011;55434;39.570;2.652;2022-07-23T00:30:10;9.13;;;5.78;;
68449;SDS011;55434;39.570;2.652;2022-07-23T00:32:50;11.90;;;6.07;;
68449;SDS011;55434;39.570;2.652;2022-07-23T00:35:21;10.97;;;5.50;;
68449;SDS011;55434;39.570;2.652;2022-07-23T00:37:48;11.57;;;6.10;;
68449;SDS011;55434;39.570;2.652;2022-07-23T00:40:13;11.13;;;6.20;;
68449;SDS011;55434;39.570;2.652;2022-07-23T00:42:39;11.57;;;5.87;;
68449;SDS011;55434;39.570;2.652;2022-07-23T00:45:05;9.13;;;5.63;;
68449;SDS011;55434;39.570;2.652;2022-07-23T00:47:32;10.50;;;6.10;;
68449;SDS011;55434;39.570;2.652;2022-07-23T00:49:58;11.48;;;5.95;;
68449;SDS011;55434;39.570;2.652;2022-07-23T00:52:24;10.70;;;5.40;;
68449;SDS011;55434;39.570;2.652;2022-07-23T00:54:51;9.70;;;6.03;;
68449;SDS011;55434;39.570;2.652;2022-07-23T00:57:17;9.77;;;5.63;;
68449;SDS011;55434;39.570;2.652;2022-07-23T00:59:43;10.03;;;5.90;;
68449;SDS011;55434;39.570;2.652;2022-07-23T01:02:08;10.23;;;5.82;;
68449;SDS011;55434;39.570;2.652;2022-07-23T01:04:34;11.57;;;6.23;;
68449;SDS011;55434;39.570;2.652;2022-07-23T01:07:00;13.73;;;5.90;;
68449;SDS011;55434;39.570;2.652;2022-07-23T01:09:26;10.03;;;5.57;;
68449;SDS011;55434;39.570;2.652;2022-07-23T01:11:52;8.55;;;5.68;;
68449;SDS011;55434;39.570;2.652;2022-07-23T01:14:20;9.68;;;6.25;;
68449;SDS011;55434;39.570;2.652;2022-07-23T01:16:46;10.25;;;5.72;;
68449;SDS011;55434;39.570;2.652;2022-07-23T01:19:14;9.53;;;5.80;;
68449;SDS011;55434;39.570;2.652;2022-07-23T01:21:41;10.52;;;5.63;;
68449;SDS011;55434;39.570;2.652;2022-07-23T01:24:09;9.50;;;5.93;;
68449;SDS011;55434;39.570;2.652;2022-07-23T01:26:36;10.15;;;5.57;;
68449;SDS011;55434;39.570;2.652;2022-07-23T01:29:04;11.05;;;5.82;;
68449;SDS011;55434;39.570;2.652;2022-07-23T01:31:31;9.43;;;5.37;;
68449;SDS011;55434;39.570;2.652;2022-07-23T01:33:57;10.73;;;5.78;;
68449;SDS011;55434;39.570;2.652;2022-07-23T01:36:23;10.25;;;5.55;;
68449;SDS011;55434;39.570;2.652;2022-07-23T01:38:48;9.50;;;5.53;;
68449;SDS011;55434;39.570;2.652;2022-07-23T01:41:14;9.50;;;5.55;;
68449;SDS011;55434;39.570;2.652;2022-07-23T01:43:39;11.20;;;6.13;;
68449;SDS011;55434;39.570;2.652;2022-07-23T01:46:05;10.40;;;6.00;;
68449;SDS011;55434;39.570;2.652;2022-07-23T01:48:31;8.27;;;5.60;;
68449;SDS011;55434;39.570;2.652;2022-07-23T01:50:56;9.97;;;5.50;;
68449;SDS011;55434;39.570;2.652;2022-07-23T01:53:22;9.63;;;5.80;;
68449;SDS011;55434;39.570;2.652;2022-07-23T01:55:47;8.13;;;5.13;;
68449;SDS011;55434;39.570;2.652;2022-07-23T01:58:16;11.00;;;5.38;;
68449;SDS011;55434;39.570;2.652;2022-07-23T02:00:41;9.67;;;5.47;;
68449;SDS011;55434;39.570;2.652;2022-07-23T02:03:07;8.87;;;5.23;;
68449;SDS011;55434;39.570;2.652;2022-07-23T02:05:32;11.88;;;4.65;;
68449;SDS011;55434;39.570;2.652;2022-07-23T02:07:58;10.57;;;5.20;;
68449;SDS011;55434;39.570;2.652;2022-07-23T02:10:25;10.60;;;5.18;;
68449;SDS011;55434;39.570;2.652;2022-07-23T02:12:52;7.75;;;4.90;;
68449;SDS011;55434;39.570;2.652;2022-07-23T02:15:17;9.10;;;5.27;;
68449;SDS011;55434;39.570;2.652;2022-07-23T02:17:43;10.27;;;5.18;;
68449;SDS011;55434;39.570;2.652;2022-07-23T02:20:09;8.17;;;4.87;;
68449;SDS011;55434;39.570;2.652;2022-07-23T02:22:35;8.15;;;4.70;;
68449;SDS011;55434;39.570;2.652;2022-07-23T02:25:02;7.03;;;4.90;;
68449;SDS011;55434;39.570;2.652;2022-07-23T02:27:30;10.50;;;4.83;;
68449;SDS011;55434;39.570;2.652;2022-07-23T02:29:56;11.55;;;4.85;;
68449;SDS011;55434;39.570;2.652;2022-07-23T02:32:22;9.32;;;4.65;;
68449;SDS011;55434;39.570;2.652;2022-07-23T02:34:48;8.87;;;5.10;;
68449;SDS011;55434;39.570;2.652;2022-07-23T02:37:14;7.78;;;5.10;;
68449;SDS011;55434;39.570;2.652;2022-07-23T02:39:40;9.00;;;5.00;;
68449;SDS011;55434;39.570;2.652;2022-07-23T02:42:05;10.55;;;4.80;;
68449;SDS011;55434;39.570;2.652;2022-07-23T02:44:31;7.63;;;4.87;;
68449;SDS011;55434;39.570;2.652;2022-07-23T02:46:57;8.00;;;4.40;;
68449;SDS011;55434;39.570;2.652;2022-07-23T02:49:22;7.83;;;4.57;;
68449;SDS011;55434;39.570;2.652;2022-07-23T02:51:48;8.98;;;4.55;;
68449;SDS011;55434;39.570;2.652;2022-07-23T02:54:14;8.13;;;4.77;;
68449;SDS011;55434;39.570;2.652;2022-07-23T02:56:39;7.68;;;4.32;;
68449;SDS011;55434;39.570;2.652;2022-07-23T02:59:05;8.80;;;4.23;;
68449;SDS011;55434;39.570;2.652;2022-07-23T03:01:30;9.57;;;4.47;;
68449;SDS011;55434;39.570;2.652;2022-07-23T03:03:56;7.45;;;4.53;;
68449;SDS011;55434;39.570;2.652;2022-07-23T03:06:22;7.17;;;4.13;;
68449;SDS011;55434;39.570;2.652;2022-07-23T03:08:47;6.00;;;3.80;;
68449;SDS011;55434;39.570;2.652;2022-07-23T03:11:13;8.07;;;4.20;;
68449;SDS011;55434;39.570;2.652;2022-07-23T03:13:39;6.63;;;4.07;;
68449;SDS011;55434;39.570;2.652;2022-07-23T03:16:05;7.55;;;4.80;;
68449;SDS011;55434;39.570;2.652;2022-07-23T03:18:30;7.93;;;4.45;;
68449;SDS011;55434;39.570;2.652;2022-07-23T03:20:57;7.83;;;4.57;;
68449;SDS011;55434;39.570;2.652;2022-07-23T03:23:25;7.40;;;4.18;;
68449;SDS011;55434;39.570;2.652;2022-07-23T03:25:51;7.97;;;4.57;;
68449;SDS011;55434;39.570;2.652;2022-07-23T03:28:17;10.50;;;4.63;;
68449;SDS011;55434;39.570;2.652;2022-07-23T03:30:43;6.97;;;4.40;;
68449;SDS011;55434;39.570;2.652;2022-07-23T03:33:13;7.73;;;4.00;;
68449;SDS011;55434;39.570;2.652;2022-07-23T03:35:39;8.13;;;4.18;;
68449;SDS011;55434;39.570;2.652;2022-07-23T03:38:05;9.50;;;4.35;;
68449;SDS011;55434;39.570;2.652;2022-07-23T03:40:31;7.93;;;4.23;;
68449;SDS011;55434;39.570;2.652;2022-07-23T03:42:56;8.68;;;4.07;;
68449;SDS011;55434;39.570;2.652;2022-07-23T03:45:22;6.57;;;3.93;;
68449;SDS011;55434;39.570;2.652;2022-07-23T03:47:47;7.97;;;3.80;;
68449;SDS011;55434;39.570;2.652;2022-07-23T03:50:13;7.20;;;3.50;;
68449;SDS011;55434;39.570;2.652;2022-07-23T03:52:39;7.13;;;3.63;;
68449;SDS011;55434;39.570;2.652;2022-07-23T03:55:04;9.80;;;3.70;;
68449;SDS011;55434;39.570;2.652;2022-07-23T03:57:30;6.90;;;3.90;;
68449;SDS011;55434;39.570;2.652;2022-07-23T03:59:56;6.23;;;3.67;;
68449;SDS011;55434;39.570;2.652;2022-07-23T04:02:22;8.33;;;4.07;;
68449;SDS011;55434;39.570;2.652;2022-07-23T04:04:48;7.50;;;3.92;;
68449;SDS011;55434;39.570;2.652;2022-07-23T04:07:14;8.57;;;3.87;;
68449;SDS011;55434;39.570;2.652;2022-07-23T04:09:40;10.45;;;3.92;;
68449;SDS011;55434;39.570;2.652;2022-07-23T04:12:06;8.55;;;4.10;;
68449;SDS011;55434;39.570;2.652;2022-07-23T04:14:32;11.57;;;3.93;;
68449;SDS011;55434;39.570;2.652;2022-07-23T04:16:59;8.23;;;4.10;;
68449;SDS011;55434;39.570;2.652;2022-07-23T04:19:25;6.97;;;3.75;;
68449;SDS011;55434;39.570;2.652;2022-07-23T04:21:51;7.10;;;3.93;;
68449;SDS011;55434;39.570;2.652;2022-07-23T04:24:17;6.45;;;3.60;;
68449;SDS011;55434;39.570;2.652;2022-07-23T04:26:43;5.73;;;3.30;;
68449;SDS011;55434;39.570;2.652;2022-07-23T04:29:09;9.27;;;3.45;;
68449;SDS011;55434;39.570;2.652;2022-07-23T04:31:34;6.03;;;3.30;;
68449;SDS011;55434;39.570;2.652;2022-07-23T04:34:00;6.32;;;3.25;;
68449;SDS011;55434;39.570;2.652;2022-07-23T04:36:25;7.33;;;3.60;;
68449;SDS011;55434;39.570;2.652;2022-07-23T04:38:51;6.63;;;3.33;;
68449;SDS011;55434;39.570;2.652;2022-07-23T04:41:16;6.97;;;3.65;;
68449;SDS011;55434;39.570;2.652;2022-07-23T04:43:42;12.33;;;3.20;;
68449;SDS011;55434;39.570;2.652;2022-07-23T04:46:07;6.47;;;3.30;;
68449;SDS011;55434;39.570;2.652;2022-07-23T04:48:33;7.53;;;3.47;;
68449;SDS011;55434;39.570;2.652;2022-07-23T04:50:58;6.17;;;2.93;;
68449;SDS011;55434;39.570;2.652;2022-07-23T04:53:30;9.10;;;3.63;;
68449;SDS011;55434;39.570;2.652;2022-07-23T04:55:57;8.27;;;3.80;;
68449;SDS011;55434;39.570;2.652;2022-07-23T04:58:23;7.43;;;3.58;;
68449;SDS011;55434;39.570;2.652;2022-07-23T05:00:48;7.33;;;3.30;;
68449;SDS011;55434;39.570;2.652;2022-07-23T05:03:14;9.73;;;3.63;;
68449;SDS011;55434;39.570;2.652;2022-07-23T05:05:40;6.18;;;3.70;;
68449;SDS011;55434;39.570;2.652;2022-07-23T05:08:05;8.07;;;3.77;;
68449;SDS011;55434;39.570;2.652;2022-07-23T05:10:31;8.57;;;3.70;;
68449;SDS011;55434;39.570;2.652;2022-07-23T05:12:57;11.73;;;3.70;;
68449;SDS011;55434;39.570;2.652;2022-07-23T05:15:23;7.90;;;3.90;;
68449;SDS011;55434;39.570;2.652;2022-07-23T05:17:49;7.13;;;3.25;;
68449;SDS011;55434;39.570;2.652;2022-07-23T05:20:15;9.48;;;4.00;;
68449;SDS011;55434;39.570;2.652;2022-07-23T05:22:40;7.33;;;3.50;;
68449;SDS011;55434;39.570;2.652;2022-07-23T05:25:07;6.80;;;3.50;;
68449;SDS011;55434;39.570;2.652;2022-07-23T05:27:33;8.93;;;3.45;;
68449;SDS011;55434;39.570;2.652;2022-07-23T05:29:59;6.93;;;3.58;;
68449;SDS011;55434;39.570;2.652;2022-07-23T05:32:25;7.43;;;3.87;;
68449;SDS011;55434;39.570;2.652;2022-07-23T05:34:50;7.78;;;3.58;;
68449;SDS011;55434;39.570;2.652;2022-07-23T05:37:16;7.40;;;3.33;;
68449;SDS011;55434;39.570;2.652;2022-07-23T05:39:43;8.10;;;3.13;;
68449;SDS011;55434;39.570;2.652;2022-07-23T05:42:08;12.00;;;3.70;;
68449;SDS011;55434;39.570;2.652;2022-07-23T05:44:34;7.80;;;4.13;;
68449;SDS011;55434;39.570;2.652;2022-07-23T05:47:00;11.27;;;4.07;;
68449;SDS011;55434;39.570;2.652;2022-07-23T05:49:26;7.20;;;3.70;;
68449;SDS011;55434;39.570;2.652;2022-07-23T05:51:51;9.47;;;3.87;;
68449;SDS011;55434;39.570;2.652;2022-07-23T05:54:17;6.25;;;3.08;;
68449;SDS011;55434;39.570;2.652;2022-07-23T05:56:43;8.00;;;3.65;;
68449;SDS011;55434;39.570;2.652;2022-07-23T05:59:09;7.57;;;3.50;;
68449;SDS011;55434;39.570;2.652;2022-07-23T06:01:37;8.30;;;3.50;;
68449;SDS011;55434;39.570;2.652;2022-07-23T06:04:03;9.07;;;3.33;;
68449;SDS011;55434;39.570;2.652;2022-07-23T06:06:28;9.70;;;3.67;;
68449;SDS011;55434;39.570;2.652;2022-07-23T06:08:54;7.20;;;3.20;;
68449;SDS011;55434;39.570;2.652;2022-07-23T06:11:20;8.43;;;3.03;;
68449;SDS011;55434;39.570;2.652;2022-07-23T06:13:46;7.37;;;3.13;;
68449;SDS011;55434;39.570;2.652;2022-07-23T06:16:11;11.80;;;3.27;;
68449;SDS011;55434;39.570;2.652;2022-07-23T06:18:37;10.15;;;3.20;;
68449;SDS011;55434;39.570;2.652;2022-07-23T06:21:02;5.60;;;3.00;;
68449;SDS011;55434;39.570;2.652;2022-07-23T06:23:28;7.90;;;3.20;;
68449;SDS011;55434;39.570;2.652;2022-07-23T06:25:53;10.50;;;3.60;;
68449;SDS011;55434;39.570;2.652;2022-07-23T06:28:19;11.40;;;3.80;;
68449;SDS011;55434;39.570;2.652;2022-07-23T06:30:44;9.30;;;3.33;;
68449;SDS011;55434;39.570;2.652;2022-07-23T06:33:10;7.57;;;3.15;;
68449;SDS011;55434;39.570;2.652;2022-07-23T06:35:37;8.68;;;3.20;;
68449;SDS011;55434;39.570;2.652;2022-07-23T06:38:02;10.03;;;3.10;;
68449;SDS011;55434;39.570;2.652;2022-07-23T06:40:28;8.93;;;3.33;;
68449;SDS011;55434;39.570;2.652;2022-07-23T06:42:54;9.23;;;3.78;;
68449;SDS011;55434;39.570;2.652;2022-07-23T06:45:19;8.33;;;3.60;;
68449;SDS011;55434;39.570;2.652;2022-07-23T06:47:46;11.25;;;3.78;;
68449;SDS011;55434;39.570;2.652;2022-07-23T06:50:11;8.05;;;3.72;;
68449;SDS011;55434;39.570;2.652;2022-07-23T06:52:37;11.67;;;3.77;;
68449;SDS011;55434;39.570;2.652;2022-07-23T06:55:02;8.30;;;3.30;;
68449;SDS011;55434;39.570;2.652;2022-07-23T06:57:28;7.60;;;3.60;;
68449;SDS011;55434;39.570;2.652;2022-07-23T06:59:54;11.47;;;3.47;;
68449;SDS011;55434;39.570;2.652;2022-07-23T07:02:19;9.13;;;3.35;;
68449;SDS011;55434;39.570;2.652;2022-07-23T07:04:45;8.67;;;3.53;;
68449;SDS011;55434;39.570;2.652;2022-07-23T07:07:10;6.67;;;3.50;;
68449;SDS011;55434;39.570;2.652;2022-07-23T07:09:37;8.75;;;3.67;;
68449;SDS011;55434;39.570;2.652;2022-07-23T07:12:03;6.70;;;3.53;;
68449;SDS011;55434;39.570;2.652;2022-07-23T07:14:29;12.20;;;3.83;;
68449;SDS011;55434;39.570;2.652;2022-07-23T07:16:54;8.95;;;3.90;;
68449;SDS011;55434;39.570;2.652;2022-07-23T07:19:20;8.57;;;3.80;;
68449;SDS011;55434;39.570;2.652;2022-07-23T07:21:45;9.60;;;3.63;;
68449;SDS011;55434;39.570;2.652;2022-07-23T07:24:11;10.15;;;4.00;;
68449;SDS011;55434;39.570;2.652;2022-07-23T07:26:36;9.10;;;3.50;;
68449;SDS011;55434;39.570;2.652;2022-07-23T07:29:04;7.38;;;3.55;;
68449;SDS011;55434;39.570;2.652;2022-07-23T07:31:30;8.80;;;3.78;;
68449;SDS011;55434;39.570;2.652;2022-07-23T07:33:56;9.63;;;4.00;;
68449;SDS011;55434;39.570;2.652;2022-07-23T07:36:22;12.50;;;3.88;;
68449;SDS011;55434;39.570;2.652;2022-07-23T07:38:48;10.90;;;3.78;;
68449;SDS011;55434;39.570;2.652;2022-07-23T07:41:13;9.90;;;3.53;;
68449;SDS011;55434;39.570;2.652;2022-07-23T07:43:39;15.67;;;4.13;;
68449;SDS011;55434;39.570;2.652;2022-07-23T07:46:05;7.73;;;3.90;;
68449;SDS011;55434;39.570;2.652;2022-07-23T07:48:35;13.02;;;4.03;;
68449;SDS011;55434;39.570;2.652;2022-07-23T07:51:04;12.35;;;4.05;;
68449;SDS011;55434;39.570;2.652;2022-07-23T07:53:30;11.60;;;4.25;;
68449;SDS011;55434;39.570;2.652;2022-07-23T07:55:56;10.10;;;4.13;;
68449;SDS011;55434;39.570;2.652;2022-07-23T07:58:21;9.45;;;3.92;;
68449;SDS011;55434;39.570;2.652;2022-07-23T08:00:47;9.53;;;3.87;;
68449;SDS011;55434;39.570;2.652;2022-07-23T08:03:13;12.48;;;3.75;;
68449;SDS011;55434;39.570;2.652;2022-07-23T08:05:38;10.50;;;3.80;;
68449;SDS011;55434;39.570;2.652;2022-07-23T08:08:04;9.40;;;3.90;;
68449;SDS011;55434;39.570;2.652;2022-07-23T08:10:29;8.07;;;3.70;;
68449;SDS011;55434;39.570;2.652;2022-07-23T08:12:57;16.27;;;4.07;;
68449;SDS011;55434;39.570;2.652;2022-07-23T08:15:23;7.47;;;3.85;;
68449;SDS011;55434;39.570;2.652;2022-07-23T08:17:51;9.82;;;3.63;;
68449;SDS011;55434;39.570;2.652;2022-07-23T08:20:18;9.93;;;4.20;;
68449;SDS011;55434;39.570;2.652;2022-07-23T08:25:10;9.87;;;4.93;;
68449;SDS011;55434;39.570;2.652;2022-07-23T08:27:36;7.77;;;4.10;;
68449;SDS011;55434;39.570;2.652;2022-07-23T08:30:01;10.95;;;3.70;;
68449;SDS011;55434;39.570;2.652;2022-07-23T08:32:28;9.00;;;3.83;;
68449;SDS011;55434;39.570;2.652;2022-07-23T08:34:53;10.80;;;4.35;;
68449;SDS011;55434;39.570;2.652;2022-07-23T08:37:18;8.97;;;4.10;;
68449;SDS011;55434;39.570;2.652;2022-07-23T08:39:44;12.00;;;4.20;;
68449;SDS011;55434;39.570;2.652;2022-07-23T08:42:09;12.73;;;4.30;;
68449;SDS011;55434;39.570;2.652;2022-07-23T08:44:36;15.40;;;3.60;;
68449;SDS011;55434;39.570;2.652;2022-07-23T08:47:04;11.20;;;4.07;;
68449;SDS011;55434;39.570;2.652;2022-07-23T08:49:30;11.80;;;4.53;;
68449;SDS011;55434;39.570;2.652;2022-07-23T08:51:56;9.13;;;3.63;;
68449;SDS011;55434;39.570;2.652;2022-07-23T08:54:21;8.55;;;3.72;;
68449;SDS011;55434;39.570;2.652;2022-07-23T08:56:48;9.43;;;3.80;;
68449;SDS011;55434;39.570;2.652;2022-07-23T08:59:14;9.10;;;4.03;;
68449;SDS011;55434;39.570;2.652;2022-07-23T09:01:40;7.72;;;3.42;;
68449;SDS011;55434;39.570;2.652;2022-07-23T09:04:05;6.53;;;3.20;;
68449;SDS011;55434;39.570;2.652;2022-07-23T09:06:31;7.23;;;3.80;;
68449;SDS011;55434;39.570;2.652;2022-07-23T09:08:56;7.63;;;3.72;;
68449;SDS011;55434;39.570;2.652;2022-07-23T09:11:22;6.63;;;3.43;;
68449;SDS011;55434;39.570;2.652;2022-07-23T09:13:52;7.40;;;3.10;;
68449;SDS011;55434;39.570;2.652;2022-07-23T09:18:59;6.45;;;3.75;;
68449;SDS011;55434;39.570;2.652;2022-07-23T09:21:27;8.02;;;3.47;;
68449;SDS011;55434;39.570;2.652;2022-07-23T09:23:57;8.68;;;3.70;;
68449;SDS011;55434;39.570;2.652;2022-07-23T09:29:04;6.90;;;3.40;;
68449;SDS011;55434;39.570;2.652;2022-07-23T09:31:31;9.80;;;4.10;;
68449;SDS011;55434;39.570;2.652;2022-07-23T09:34:16;5.75;;;3.60;;
68449;SDS011;55434;39.570;2.652;2022-07-23T09:36:42;6.53;;;3.45;;
68449;SDS011;55434;39.570;2.652;2022-07-23T09:39:08;5.75;;;3.45;;
68449;SDS011;55434;39.570;2.652;2022-07-23T09:41:42;7.87;;;3.80;;
68449;SDS011;55434;39.570;2.652;2022-07-23T09:44:11;9.48;;;4.20;;
68449;SDS011;55434;39.570;2.652;2022-07-23T09:46:44;9.07;;;4.10;;
68449;SDS011;55434;39.570;2.652;2022-07-23T09:49:15;10.10;;;4.07;;
68449;SDS011;55434;39.570;2.652;2022-07-23T09:51:46;7.40;;;3.80;;
68449;SDS011;55434;39.570;2.652;2022-07-23T09:54:32;13.20;;;4.87;;
68449;SDS011;55434;39.570;2.652;2022-07-23T09:57:06;9.60;;;5.38;;
68449;SDS011;55434;39.570;2.652;2022-07-23T09:59:41;11.38;;;4.93;;
68449;SDS011;55434;39.570;2.652;2022-07-23T10:02:08;10.50;;;4.40;;
68449;SDS011;55434;39.570;2.652;2022-07-23T10:04:37;6.45;;;3.60;;
68449;SDS011;55434;39.570;2.652;2022-07-23T10:07:05;6.47;;;3.67;;
68449;SDS011;55434;39.570;2.652;2022-07-23T10:09:33;8.48;;;4.00;;
68449;SDS011;55434;39.570;2.652;2022-07-23T10:12:06;8.57;;;4.40;;
68449;SDS011;55434;39.570;2.652;2022-07-23T10:14:53;6.55;;;4.05;;
68449;SDS011;55434;39.570;2.652;2022-07-23T10:17:20;8.25;;;4.13;;
68449;SDS011;55434;39.570;2.652;2022-07-23T10:19:45;7.77;;;6.07;;
68449;SDS011;55434;39.570;2.652;2022-07-23T10:22:12;10.50;;;4.27;;
68449;SDS011;55434;39.570;2.652;2022-07-23T10:30:02;10.70;;;4.70;;
68449;SDS011;55434;39.570;2.652;2022-07-23T10:35:18;8.07;;;4.47;;
68449;SDS011;55434;39.570;2.652;2022-07-23T10:37:56;10.02;;;5.10;;
68449;SDS011;55434;39.570;2.652;2022-07-23T10:40:32;17.35;;;6.35;;
68449;SDS011;55434;39.570;2.652;2022-07-23T10:42:58;10.23;;;5.90;;
68449;SDS011;55434;39.570;2.652;2022-07-23T10:48:14;19.75;;;8.63;;
68449;SDS011;55434;39.570;2.652;2022-07-23T10:50:41;11.82;;;6.82;;
68449;SDS011;55434;39.570;2.652;2022-07-23T10:53:15;14.98;;;8.07;;
68449;SDS011;55434;39.570;2.652;2022-07-23T10:55:49;9.82;;;6.57;;
68449;SDS011;55434;39.570;2.652;2022-07-23T10:58:21;12.60;;;7.60;;
68449;SDS011;55434;39.570;2.652;2022-07-23T11:00:48;8.52;;;6.68;;
68449;SDS011;55434;39.570;2.652;2022-07-23T11:03:31;9.07;;;7.22;;
68449;SDS011;55434;39.570;2.652;2022-07-23T11:06:01;9.77;;;7.53;;
68449;SDS011;55434;39.570;2.652;2022-07-23T11:08:27;8.85;;;7.63;;
68449;SDS011;55434;39.570;2.652;2022-07-23T11:11:14;10.32;;;7.75;;
68449;SDS011;55434;39.570;2.652;2022-07-23T11:31:52;10.55;;;7.45;;
68449;SDS011;55434;39.570;2.652;2022-07-23T11:37:12;9.45;;;7.38;;
68449;SDS011;55434;39.570;2.652;2022-07-23T11:39:55;8.80;;;7.53;;
68449;SDS011;55434;39.570;2.652;2022-07-23T11:42:22;11.43;;;6.93;;
68449;SDS011;55434;39.570;2.652;2022-07-23T11:44:49;10.00;;;7.47;;
68449;SDS011;55434;39.570;2.652;2022-07-23T11:47:15;8.80;;;7.17;;
68449;SDS011;55434;39.570;2.652;2022-07-23T11:49:59;10.48;;;7.55;;
68449;SDS011;55434;39.570;2.652;2022-07-23T11:52:26;10.45;;;8.65;;
68449;SDS011;55434;39.570;2.652;2022-07-23T11:57:27;12.48;;;8.48;;
68449;SDS011;55434;39.570;2.652;2022-07-23T12:02:41;11.10;;;8.15;;
68449;SDS011;55434;39.570;2.652;2022-07-23T12:05:10;9.23;;;7.88;;
68449;SDS011;55434;39.570;2.652;2022-07-23T12:07:41;12.23;;;8.77;;
68449;SDS011;55434;39.570;2.652;2022-07-23T12:10:23;13.80;;;7.95;;
68449;SDS011;55434;39.570;2.652;2022-07-23T12:12:52;10.02;;;7.30;;
68449;SDS011;55434;39.570;2.652;2022-07-23T12:15:19;11.75;;;6.82;;
68449;SDS011;55434;39.570;2.652;2022-07-23T12:17:50;24.77;;;16.20;;
68449;SDS011;55434;39.570;2.652;2022-07-23T12:20:18;13.20;;;7.90;;
68449;SDS011;55434;39.570;2.652;2022-07-23T12:22:47;11.43;;;6.97;;
68449;SDS011;55434;39.570;2.652;2022-07-23T12:25:15;12.43;;;7.05;;
68449;SDS011;55434;39.570;2.652;2022-07-23T12:27:43;12.70;;;7.30;;
68449;SDS011;55434;39.570;2.652;2022-07-23T12:30:15;8.40;;;7.13;;
68449;SDS011;55434;39.570;2.652;2022-07-23T12:32:53;10.20;;;7.13;;
68449;SDS011;55434;39.570;2.652;2022-07-23T12:35:20;11.18;;;6.78;;
68449;SDS011;55434;39.570;2.652;2022-07-23T12:37:48;7.50;;;6.32;;
68449;SDS011;55434;39.570;2.652;2022-07-23T12:42:58;9.73;;;6.68;;
68449;SDS011;55434;39.570;2.652;2022-07-23T12:45:26;11.07;;;6.50;;
68449;SDS011;55434;39.570;2.652;2022-07-23T12:48:00;12.43;;;7.00;;
68449;SDS011;55434;39.570;2.652;2022-07-23T12:53:06;15.15;;;7.00;;
68449;SDS011;55434;39.570;2.652;2022-07-23T12:55:40;13.13;;;7.75;;
68449;SDS011;55434;39.570;2.652;2022-07-23T12:58:10;12.03;;;7.73;;
68449;SDS011;55434;39.570;2.652;2022-07-23T13:00:51;15.52;;;8.73;;
68449;SDS011;55434;39.570;2.652;2022-07-23T13:03:23;9.75;;;7.32;;
68449;SDS011;55434;39.570;2.652;2022-07-23T13:05:53;11.25;;;7.20;;
68449;SDS011;55434;39.570;2.652;2022-07-23T13:08:19;8.95;;;6.95;;
68449;SDS011;55434;39.570;2.652;2022-07-23T13:10:46;9.60;;;6.43;;
68449;SDS011;55434;39.570;2.652;2022-07-23T13:13:13;8.52;;;6.65;;
68449;SDS011;55434;39.570;2.652;2022-07-23T13:15:39;9.40;;;5.75;;
68449;SDS011;55434;39.570;2.652;2022-07-23T13:18:05;8.27;;;6.40;;
68449;SDS011;55434;39.570;2.652;2022-07-23T13:20:31;7.88;;;6.35;;
68449;SDS011;55434;39.570;2.652;2022-07-23T13:22:59;8.15;;;5.88;;
68449;SDS011;55434;39.570;2.652;2022-07-23T13:25:25;10.88;;;6.95;;
68449;SDS011;55434;39.570;2.652;2022-07-23T13:27:51;8.93;;;6.50;;
68449;SDS011;55434;39.570;2.652;2022-07-23T13:30:16;10.00;;;6.73;;
68449;SDS011;55434;39.570;2.652;2022-07-23T13:32:42;8.35;;;6.20;;
68449;SDS011;55434;39.570;2.652;2022-07-23T13:35:08;8.90;;;6.30;;
68449;SDS011;55434;39.570;2.652;2022-07-23T13:37:34;9.00;;;6.18;;
68449;SDS011;55434;39.570;2.652;2022-07-23T13:40:00;9.20;;;6.60;;
68449;SDS011;55434;39.570;2.652;2022-07-23T13:42:25;9.90;;;6.50;;
68449;SDS011;55434;39.570;2.652;2022-07-23T13:44:51;9.30;;;5.70;;
68449;SDS011;55434;39.570;2.652;2022-07-23T13:47:16;9.23;;;5.72;;
68449;SDS011;55434;39.570;2.652;2022-07-23T13:49:42;10.03;;;6.87;;
68449;SDS011;55434;39.570;2.652;2022-07-23T13:52:07;12.50;;;6.37;;
68449;SDS011;55434;39.570;2.652;2022-07-23T13:54:34;7.93;;;6.30;;
68449;SDS011;55434;39.570;2.652;2022-07-23T13:57:00;8.57;;;6.03;;
68449;SDS011;55434;39.570;2.652;2022-07-23T13:59:27;8.52;;;5.60;;
68449;SDS011;55434;39.570;2.652;2022-07-23T14:01:53;7.50;;;5.53;;
68449;SDS011;55434;39.570;2.652;2022-07-23T14:04:20;7.00;;;4.85;;
68449;SDS011;55434;39.570;2.652;2022-07-23T14:06:46;10.70;;;5.15;;
68449;SDS011;55434;39.570;2.652;2022-07-23T14:09:12;7.90;;;5.23;;
68449;SDS011;55434;39.570;2.652;2022-07-23T14:11:38;7.20;;;5.13;;
68449;SDS011;55434;39.570;2.652;2022-07-23T14:14:04;9.32;;;5.45;;
68449;SDS011;55434;39.570;2.652;2022-07-23T14:16:30;8.20;;;4.95;;
68449;SDS011;55434;39.570;2.652;2022-07-23T14:18:55;7.07;;;5.13;;
68449;SDS011;55434;39.570;2.652;2022-07-23T14:21:21;7.97;;;5.20;;
68449;SDS011;55434;39.570;2.652;2022-07-23T14:23:46;9.27;;;4.80;;
68449;SDS011;55434;39.570;2.652;2022-07-23T14:26:12;7.97;;;4.53;;
68449;SDS011;55434;39.570;2.652;2022-07-23T14:28:37;8.18;;;4.90;;
68449;SDS011;55434;39.570;2.652;2022-07-23T14:31:03;7.90;;;5.13;;
68449;SDS011;55434;39.570;2.652;2022-07-23T14:33:28;8.33;;;5.10;;
68449;SDS011;55434;39.570;2.652;2022-07-23T14:35:54;8.52;;;5.72;;
68449;SDS011;55434;39.570;2.652;2022-07-23T14:38:19;11.30;;;6.63;;
68449;SDS011;55434;39.570;2.652;2022-07-23T14:40:45;9.27;;;5.10;;
68449;SDS011;55434;39.570;2.652;2022-07-23T14:43:10;8.07;;;5.60;;
68449;SDS011;55434;39.570;2.652;2022-07-23T14:48:02;9.77;;;5.57;;
68449;SDS011;55434;39.570;2.652;2022-07-23T14:50:28;8.90;;;5.15;;
68449;SDS011;55434;39.570;2.652;2022-07-23T14:52:53;8.20;;;5.43;;
68449;SDS011;55434;39.570;2.652;2022-07-23T14:55:19;8.33;;;5.60;;
68449;SDS011;55434;39.570;2.652;2022-07-23T14:57:45;7.80;;;5.57;;
68449;SDS011;55434;39.570;2.652;2022-07-23T15:00:11;8.20;;;5.57;;
68449;SDS011;55434;39.570;2.652;2022-07-23T15:02:37;7.10;;;4.70;;
68449;SDS011;55434;39.570;2.652;2022-07-23T15:05:03;8.80;;;5.60;;
68449;SDS011;55434;39.570;2.652;2022-07-23T15:07:29;8.55;;;6.07;;
68449;SDS011;55434;39.570;2.652;2022-07-23T15:09:55;7.82;;;5.03;;
68449;SDS011;55434;39.570;2.652;2022-07-23T15:12:23;8.70;;;5.82;;
68449;SDS011;55434;39.570;2.652;2022-07-23T15:14:49;7.55;;;5.05;;
68449;SDS011;55434;39.570;2.652;2022-07-23T15:17:15;6.90;;;4.72;;
68449;SDS011;55434;39.570;2.652;2022-07-23T15:19:41;8.25;;;5.63;;
68449;SDS011;55434;39.570;2.652;2022-07-23T15:22:06;7.20;;;5.20;;
68449;SDS011;55434;39.570;2.652;2022-07-23T15:24:32;8.32;;;5.55;;
68449;SDS011;55434;39.570;2.652;2022-07-23T15:26:57;9.83;;;4.87;;
68449;SDS011;55434;39.570;2.652;2022-07-23T15:29:23;11.93;;;5.83;;
68449;SDS011;55434;39.570;2.652;2022-07-23T15:31:49;7.65;;;5.47;;
68449;SDS011;55434;39.570;2.652;2022-07-23T15:34:15;8.73;;;5.63;;